Time;durP1;ratioP1;P1;durP2;ratioP2;P2;SDS_P1;SDS_P2;PMS_P1;PMS_P2;Temp;Humidity;BMP_temperature;BMP_pressure;BME280_temperature;BME280_humidity;BME280_pressure;Samples;Min_cycle;Max_cycle;Signal;HPM_P1;HPM_P2
2022/09/06 00:00:37;;;;;;;20.00;18.77;;;18.80;99.90;;;;;;4915533;29;20978;-72
2022/09/06 00:03:04;;;;;;;18.77;17.57;;;18.80;99.90;;;;;;4914992;29;20480;-72
2022/09/06 00:05:32;;;;;;;19.93;18.67;;;18.80;99.90;;;;;;4915548;29;20477;-72
2022/09/06 00:07:59;;;;;;;19.60;18.20;;;18.80;99.90;;;;;;4915412;29;20950;-72
2022/09/06 00:10:26;;;;;;;19.60;18.50;;;18.70;99.90;;;;;;4915222;29;20856;-72
2022/09/06 00:12:54;;;;;;;18.93;17.73;;;18.70;99.90;;;;;;4915511;29;20466;-72
2022/09/06 00:15:22;;;;;;;19.47;18.27;;;18.70;99.90;;;;;;4915351;29;20463;-73
2022/09/06 00:17:50;;;;;;;19.67;18.03;;;18.60;99.90;;;;;;4915489;29;20478;-72
2022/09/06 00:20:17;;;;;;;19.30;17.97;;;18.60;99.90;;;;;;4915113;29;20454;-72
2022/09/06 00:22:44;;;;;;;19.67;18.30;;;18.60;99.90;;;;;;4914832;29;20577;-73
2022/09/06 00:25:10;;;;;;;18.50;17.50;;;18.60;99.90;;;;;;4915242;29;20462;-73
2022/09/06 00:27:37;;;;;;;18.40;17.40;;;18.60;99.90;;;;;;4915090;29;20465;-73
2022/09/06 00:30:06;;;;;;;21.00;19.50;;;18.60;99.90;;;;;;4915068;29;20498;-73
2022/09/06 00:32:33;;;;;;;22.27;19.30;;;18.50;99.90;;;;;;4915068;29;20450;-72
2022/09/06 00:35:00;;;;;;;22.00;20.30;;;18.50;99.90;;;;;;4914990;29;20466;-73
2022/09/06 01:08:42;;;;;;;20.30;19.10;;;18.20;99.90;;;;;;5932862;23;20407;-76
2022/09/06 01:11:27;;;;;;;20.97;19.57;;;18.20;99.90;;;;;;4932777;29;20461;-77
2022/09/06 01:14:05;;;;;;;20.67;19.20;;;18.10;99.90;;;;;;4931981;29;20834;-77
2022/09/06 01:16:39;;;;;;;21.57;20.30;;;18.10;99.90;;;;;;4932487;29;20964;-77
2022/09/06 01:19:41;;;;;;;20.53;18.90;;;18.10;99.90;;;;;;4932320;29;20457;-76
2022/09/06 01:22:25;;;;;;;20.03;18.57;;;18.00;99.90;;;;;;4932054;29;20465;-74
2022/09/06 01:25:09;;;;;;;20.87;19.67;;;18.00;99.90;;;;;;4932550;29;20457;-74
2022/09/06 01:27:59;;;;;;;20.73;19.47;;;17.90;99.90;;;;;;4932581;29;20500;-75
2022/09/06 01:30:26;;;;;;;22.30;20.67;;;17.90;99.90;;;;;;4932848;29;20493;-74
2022/09/06 01:32:57;;;;;;;21.30;19.70;;;17.90;99.90;;;;;;4932521;29;20458;-74
2022/09/06 01:35:29;;;;;;;21.73;20.53;;;17.90;99.90;;;;;;4932656;29;20466;-73
2022/09/06 01:37:57;;;;;;;20.73;19.33;;;18.00;99.90;;;;;;4932603;29;20465;-74
2022/09/06 01:40:23;;;;;;;21.80;20.30;;;17.90;99.90;;;;;;4932376;29;20522;-74
2022/09/06 01:42:53;;;;;;;20.10;19.00;;;17.90;99.90;;;;;;4932279;29;20468;-74
2022/09/06 01:45:23;;;;;;;22.20;20.70;;;17.90;99.90;;;;;;4932304;29;20797;-74
2022/09/06 01:48:01;;;;;;;21.53;20.20;;;17.90;99.90;;;;;;4932286;29;21018;-75
2022/09/06 01:50:48;;;;;;;20.10;18.80;;;17.90;99.90;;;;;;4932250;29;20488;-74
2022/09/06 01:53:28;;;;;;;23.00;21.20;;;17.90;99.90;;;;;;4932044;29;20454;-76
2022/09/06 01:56:02;;;;;;;23.60;21.80;;;17.90;99.90;;;;;;4932531;29;20461;-75
2022/09/06 01:58:50;;;;;;;22.20;20.43;;;17.90;99.90;;;;;;4932175;29;20462;-76
2022/09/06 02:01:28;;;;;;;21.93;20.37;;;18.00;99.90;;;;;;4932058;29;20832;-75
2022/09/06 02:04:03;;;;;;;23.43;21.63;;;17.90;99.90;;;;;;4932002;29;20449;-76
2022/09/06 02:06:33;;;;;;;20.93;19.57;;;18.00;99.90;;;;;;4932093;29;20452;-74
2022/09/06 02:09:05;;;;;;;21.83;20.30;;;18.00;99.90;;;;;;4931648;29;20485;-74
2022/09/06 02:11:37;;;;;;;22.60;21.07;;;18.00;99.90;;;;;;4931700;29;20464;-75
2022/09/06 02:14:09;;;;;;;23.00;21.57;;;18.10;99.90;;;;;;4932007;29;20453;-75
2022/09/06 02:16:40;;;;;;;23.57;22.07;;;18.10;99.90;;;;;;4932050;29;20457;-75
2022/09/06 02:19:12;;;;;;;23.37;21.57;;;18.10;99.90;;;;;;4932025;29;20460;-74
2022/09/06 02:21:44;;;;;;;22.60;21.30;;;18.10;99.90;;;;;;4932202;29;20476;-74
2022/09/06 02:24:15;;;;;;;23.80;22.00;;;18.10;99.90;;;;;;4932302;29;20453;-74
2022/09/06 02:26:44;;;;;;;22.33;21.03;;;18.10;99.90;;;;;;4931932;29;20456;-74
2022/09/06 02:29:13;;;;;;;20.50;19.30;;;18.20;99.90;;;;;;4931968;29;20574;-76
2022/09/06 02:31:50;;;;;;;21.93;20.63;;;18.30;99.90;;;;;;4931673;29;20469;-77
2022/09/06 02:34:19;;;;;;;21.13;19.77;;;18.40;99.90;;;;;;4931367;29;20464;-75
2022/09/06 02:36:46;;;;;;;20.87;19.67;;;18.60;99.90;;;;;;4931416;29;20461;-76
2022/09/06 02:39:13;;;;;;;22.13;20.67;;;18.60;99.90;;;;;;4931513;29;20461;-76
2022/09/06 02:41:42;;;;;;;21.93;20.53;;;18.70;99.90;;;;;;4931570;29;20457;-77
2022/09/06 02:44:08;;;;;;;21.70;20.53;;;18.80;99.90;;;;;;4931292;29;20476;-77
2022/09/06 02:46:36;;;;;;;21.90;20.53;;;18.90;99.90;;;;;;4931203;29;20465;-77
2022/09/06 02:49:03;;;;;;;21.50;20.27;;;19.10;99.90;;;;;;4931223;29;20461;-77
2022/09/06 02:51:31;;;;;;;21.07;19.73;;;19.10;99.90;;;;;;4931131;29;20519;-77
2022/09/06 02:53:57;;;;;;;21.57;20.37;;;19.10;99.90;;;;;;4931434;29;20464;-78
2022/09/06 02:56:24;;;;;;;23.27;22.07;;;19.20;99.90;;;;;;4931330;29;20457;-77
2022/09/06 02:58:51;;;;;;;26.63;25.10;;;19.10;99.90;;;;;;4931202;29;20462;-75
2022/09/06 03:01:17;;;;;;;28.47;26.87;;;18.90;99.90;;;;;;4931142;29;20716;-75
2022/09/06 03:03:47;;;;;;;30.00;28.30;;;18.80;99.90;;;;;;4931276;29;20457;-72
2022/09/06 03:06:14;;;;;;;39.03;36.03;;;18.80;99.90;;;;;;4931294;29;20492;-71
2022/09/06 03:08:40;;;;;;;42.33;39.00;;;18.70;99.90;;;;;;4931008;29;20481;-71
2022/09/06 03:11:07;;;;;;;41.50;37.97;;;18.60;99.90;;;;;;4930957;29;20497;-72
2022/09/06 03:13:34;;;;;;;34.00;31.80;;;18.40;99.90;;;;;;4930847;29;20876;-72
2022/09/06 03:16:00;;;;;;;36.70;34.20;;;18.40;99.90;;;;;;4930907;29;20673;-72
2022/09/06 03:18:30;;;;;;;38.50;35.70;;;18.40;99.90;;;;;;4931316;29;20463;-73
2022/09/06 03:20:59;;;;;;;38.63;36.03;;;18.20;99.90;;;;;;4931064;29;20450;-74
2022/09/06 03:23:30;;;;;;;38.40;35.67;;;18.10;99.90;;;;;;4931091;29;20457;-75
2022/09/06 03:25:57;;;;;;;35.80;33.50;;;18.20;99.90;;;;;;4931133;29;20452;-75
2022/09/06 03:28:24;;;;;;;39.07;36.27;;;18.10;99.90;;;;;;4930800;29;20461;-73
2022/09/06 03:30:52;;;;;;;38.20;35.70;;;18.20;99.90;;;;;;4930607;29;20493;-74
2022/09/06 03:33:19;;;;;;;43.17;40.27;;;18.00;99.90;;;;;;4930626;29;20458;-74
2022/09/06 03:35:50;;;;;;;44.43;41.23;;;18.10;99.90;;;;;;4930830;29;20461;-72
2022/09/06 03:38:19;;;;;;;47.30;43.97;;;18.00;99.90;;;;;;4932536;29;20460;-73
2022/09/06 03:40:46;;;;;;;44.67;41.73;;;18.10;99.90;;;;;;4933971;29;20457;-73
2022/09/06 03:43:14;;;;;;;46.93;43.63;;;18.00;99.90;;;;;;4934294;29;20829;-72
2022/09/06 03:45:44;;;;;;;46.13;42.57;;;17.90;99.90;;;;;;4934253;29;20472;-72
2022/09/06 03:48:11;;;;;;;44.70;41.40;;;18.00;99.90;;;;;;4934339;29;20453;-73
2022/09/06 03:50:38;;;;;;;46.37;42.87;;;18.00;99.90;;;;;;4933884;29;20525;-72
2022/09/06 03:53:04;;;;;;;41.63;38.43;;;18.00;99.90;;;;;;4933695;29;20456;-73
2022/09/06 03:55:32;;;;;;;45.83;42.40;;;17.90;99.90;;;;;;4933693;29;20941;-73
2022/09/06 03:57:59;;;;;;;44.73;41.63;;;17.90;99.90;;;;;;4933793;29;20457;-72
2022/09/06 04:00:26;;;;;;;45.87;42.57;;;17.90;99.90;;;;;;4933794;29;20461;-73
2022/09/06 04:02:52;;;;;;;46.43;42.80;;;17.80;99.90;;;;;;4933440;29;20464;-72
2022/09/06 04:05:19;;;;;;;42.90;39.37;;;17.80;99.90;;;;;;4933557;29;20458;-73
2022/09/06 04:07:45;;;;;;;43.73;40.43;;;17.70;99.90;;;;;;4933519;29;20481;-72
2022/09/06 04:10:12;;;;;;;47.03;43.43;;;17.60;99.90;;;;;;4933621;29;20493;-72
2022/09/06 04:12:40;;;;;;;45.53;42.23;;;17.50;99.90;;;;;;4933789;29;20461;-73
2022/09/06 04:15:08;;;;;;;43.97;41.00;;;17.50;99.90;;;;;;4933704;29;20453;-72
2022/09/06 04:17:34;;;;;;;42.33;39.03;;;17.50;99.90;;;;;;4933913;29;20453;-73
2022/09/06 04:20:01;;;;;;;44.93;41.53;;;17.50;99.90;;;;;;4933631;29;20457;-73
2022/09/06 04:22:28;;;;;;;43.87;40.43;;;17.50;99.90;;;;;;4933778;29;20458;-73
2022/09/06 04:24:55;;;;;;;43.80;40.33;;;17.50;99.90;;;;;;4933660;29;20575;-73
2022/09/06 04:27:22;;;;;;;45.23;41.93;;;17.60;99.90;;;;;;4933497;29;20469;-74
2022/09/06 04:29:50;;;;;;;43.37;40.47;;;17.60;99.90;;;;;;4933326;29;20466;-74
2022/09/06 04:32:16;;;;;;;43.37;40.07;;;17.60;99.90;;;;;;4933253;29;20457;-74
2022/09/06 04:34:43;;;;;;;41.27;38.13;;;17.60;99.90;;;;;;4933593;29;20453;-73
2022/09/06 04:37:10;;;;;;;41.87;38.70;;;17.60;99.90;;;;;;4933371;29;20457;-73
2022/09/06 04:39:37;;;;;;;43.80;40.70;;;17.60;99.90;;;;;;4933230;29;20552;-73
2022/09/06 04:42:03;;;;;;;42.27;39.47;;;17.60;99.90;;;;;;4933222;29;20464;-73
2022/09/06 04:44:30;;;;;;;40.53;37.73;;;17.60;99.90;;;;;;4933169;29;20460;-73
2022/09/06 04:47:08;;;;;;;43.23;40.23;;;17.60;99.90;;;;;;4933465;29;20453;-74
2022/09/06 04:49:35;;;;;;;44.03;40.90;;;17.70;99.90;;;;;;4932941;29;20715;-73
2022/09/06 04:52:02;;;;;;;43.50;40.63;;;17.70;99.90;;;;;;4932939;29;20622;-73
2022/09/06 04:54:29;;;;;;;43.00;40.17;;;17.70;99.90;;;;;;4933018;29;20458;-73
2022/09/06 04:56:55;;;;;;;44.63;41.43;;;17.70;99.90;;;;;;4933123;29;20465;-73
2022/09/06 04:59:22;;;;;;;39.83;36.97;;;17.70;99.90;;;;;;4932964;29;20472;-73
2022/09/06 05:01:49;;;;;;;41.80;38.93;;;17.70;99.90;;;;;;4932935;29;20937;-72
2022/09/06 05:04:17;;;;;;;46.60;42.73;;;17.70;99.90;;;;;;4932607;29;20465;-74
2022/09/06 05:06:44;;;;;;;41.07;37.90;;;17.70;99.90;;;;;;4933071;29;20461;-74
2022/09/06 05:09:11;;;;;;;41.17;38.47;;;17.70;99.90;;;;;;4932859;29;20497;-74
2022/09/06 05:11:38;;;;;;;38.57;35.90;;;17.70;99.90;;;;;;4932861;29;20616;-74
2022/09/06 05:14:04;;;;;;;38.90;36.60;;;17.70;99.90;;;;;;4932846;29;20477;-74
2022/09/06 05:16:31;;;;;;;36.97;34.47;;;17.70;99.90;;;;;;4932688;29;20840;-74
2022/09/06 05:18:58;;;;;;;36.67;34.23;;;17.70;99.90;;;;;;4932628;29;20535;-75
2022/09/06 05:21:26;;;;;;;36.77;34.17;;;17.70;99.90;;;;;;4932803;29;20460;-73
2022/09/06 05:23:53;;;;;;;36.50;34.30;;;17.70;99.90;;;;;;4932663;29;20465;-74
2022/09/06 05:26:19;;;;;;;36.83;33.63;;;17.80;99.90;;;;;;4932459;29;20485;-74
2022/09/06 05:28:46;;;;;;;33.87;31.77;;;17.80;99.90;;;;;;4932276;29;20457;-74
2022/09/06 05:31:26;;;;;;;33.00;30.90;;;17.90;99.90;;;;;;4932626;29;20514;-75
2022/09/06 05:33:53;;;;;;;32.47;29.93;;;17.90;99.90;;;;;;4932440;29;20516;-76
2022/09/06 05:36:22;;;;;;;31.63;29.47;;;17.90;99.90;;;;;;4932406;29;20446;-75
2022/09/06 05:38:50;;;;;;;29.30;27.40;;;18.00;99.90;;;;;;4932429;29;20476;-75
2022/09/06 05:41:17;;;;;;;28.70;26.60;;;17.90;99.90;;;;;;4932287;29;21123;-75
2022/09/06 05:43:44;;;;;;;28.67;26.53;;;18.00;99.90;;;;;;4932200;29;20445;-74
2022/09/06 05:46:11;;;;;;;27.57;26.07;;;18.10;99.90;;;;;;4932143;29;20461;-75
2022/09/06 05:48:37;;;;;;;25.60;23.97;;;18.20;99.90;;;;;;4931947;29;20457;-74
2022/09/06 05:51:06;;;;;;;25.00;23.27;;;18.20;99.90;;;;;;4931772;29;20496;-75
2022/09/06 05:53:34;;;;;;;25.80;24.20;;;18.20;99.90;;;;;;4931846;29;20484;-74
2022/09/06 05:56:04;;;;;;;25.63;23.97;;;18.30;99.90;;;;;;4931993;29;20464;-74
2022/09/06 05:58:30;;;;;;;26.07;24.27;;;18.30;99.90;;;;;;4931880;29;20803;-74
2022/09/06 06:01:05;;;;;;;25.40;23.90;;;18.40;99.90;;;;;;4931795;29;20460;-74
2022/09/06 06:03:32;;;;;;;25.60;24.00;;;18.40;99.90;;;;;;4931745;29;20496;-73
2022/09/06 06:05:59;;;;;;;24.80;22.90;;;18.40;99.90;;;;;;4931801;29;20464;-73
2022/09/06 06:08:26;;;;;;;22.63;21.33;;;18.40;99.90;;;;;;4931715;29;20495;-74
2022/09/06 06:10:52;;;;;;;24.00;22.60;;;18.40;99.90;;;;;;4931753;29;20493;-72
2022/09/06 06:13:20;;;;;;;25.93;23.90;;;18.50;99.90;;;;;;4932012;29;20853;-74
2022/09/06 06:15:47;;;;;;;23.77;22.47;;;18.50;99.90;;;;;;4931951;29;20941;-73
2022/09/06 06:18:14;;;;;;;23.90;22.40;;;18.50;99.90;;;;;;4931953;29;20449;-73
2022/09/06 06:20:40;;;;;;;25.57;23.67;;;18.60;99.90;;;;;;4931650;29;20481;-75
2022/09/06 06:23:07;;;;;;;27.57;25.40;;;18.60;99.90;;;;;;4931855;29;20461;-74
2022/09/06 06:25:34;;;;;;;27.23;25.30;;;18.70;99.90;;;;;;4931473;29;20469;-73
2022/09/06 06:28:00;;;;;;;24.60;23.10;;;18.70;99.90;;;;;;4931280;29;20484;-72
2022/09/06 06:30:28;;;;;;;26.80;25.00;;;18.80;99.90;;;;;;4931127;29;20458;-73
2022/09/06 06:32:57;;;;;;;24.87;23.13;;;18.90;99.90;;;;;;4931142;29;20458;-73
2022/09/06 06:35:24;;;;;;;22.83;21.33;;;19.00;99.90;;;;;;4931275;29;20461;-74
2022/09/06 06:37:50;;;;;;;21.80;20.50;;;19.10;99.90;;;;;;4930997;29;20480;-74
2022/09/06 06:40:17;;;;;;;22.67;21.27;;;19.10;99.90;;;;;;4931047;29;20461;-74
2022/09/06 06:42:44;;;;;;;22.53;21.17;;;19.20;99.90;;;;;;4931190;29;20461;-74
2022/09/06 06:45:11;;;;;;;24.63;23.10;;;19.40;99.90;;;;;;4931367;29;20449;-76
2022/09/06 06:47:39;;;;;;;24.37;22.80;;;19.50;99.90;;;;;;4931172;29;20528;-73
2022/09/06 06:50:06;;;;;;;24.50;22.53;;;19.60;99.90;;;;;;4930741;29;20528;-72
2022/09/06 06:52:33;;;;;;;22.07;20.53;;;19.60;99.90;;;;;;4930484;29;20920;-72
2022/09/06 06:55:00;;;;;;;24.23;22.57;;;19.60;99.90;;;;;;4930757;29;20480;-71
2022/09/06 06:57:26;;;;;;;23.57;22.07;;;19.90;99.90;;;;;;4930945;29;20848;-73
2022/09/06 06:59:53;;;;;;;22.53;20.67;;;20.30;99.90;;;;;;4931334;29;20480;-73
2022/09/06 07:02:20;;;;;;;22.73;21.23;;;20.60;99.90;;;;;;4929274;29;20577;-74
2022/09/06 07:04:48;;;;;;;22.50;20.70;;;21.00;99.90;;;;;;4928158;29;20464;-75
2022/09/06 07:07:15;;;;;;;21.27;19.60;;;21.60;99.90;;;;;;4930597;29;20461;-73
2022/09/06 07:09:41;;;;;;;18.63;17.63;;;21.90;99.90;;;;;;4931207;29;20493;-73
2022/09/06 07:12:08;;;;;;;19.33;18.13;;;21.70;99.90;;;;;;4931315;29;20493;-74
2022/09/06 07:14:35;;;;;;;18.23;17.10;;;21.90;99.90;;;;;;4934806;29;20564;-75
2022/09/06 07:17:02;;;;;;;19.73;18.50;;;22.10;99.90;;;;;;4934936;29;20457;-75
2022/09/06 07:19:29;;;;;;;19.63;18.43;;;22.10;99.90;;;;;;4935076;29;20468;-76
2022/09/06 07:21:57;;;;;;;18.90;17.60;;;22.20;99.90;;;;;;4935070;29;20449;-76
2022/09/06 07:24:24;;;;;;;18.57;17.37;;;22.10;99.90;;;;;;4935076;29;20556;-76
2022/09/06 07:26:50;;;;;;;19.07;18.07;;;22.10;99.90;;;;;;4935018;29;20487;-76
2022/09/06 07:29:17;;;;;;;18.30;17.37;;;22.20;99.90;;;;;;4934512;29;20457;-77
2022/09/06 07:31:44;;;;;;;18.80;17.70;;;22.00;99.90;;;;;;4935106;29;20515;-77
2022/09/06 07:34:10;;;;;;;18.40;17.47;;;21.90;99.90;;;;;;4932685;29;20460;-77
2022/09/06 07:36:37;;;;;;;20.27;18.87;;;22.00;99.90;;;;;;4934176;29;20737;-77
2022/09/06 07:39:05;;;;;;;20.70;19.40;;;21.90;99.90;;;;;;4933785;29;20456;-78
2022/09/06 07:41:32;;;;;;;21.00;19.70;;;21.80;99.90;;;;;;4933767;29;20456;-78
2022/09/06 07:43:58;;;;;;;19.13;17.63;;;22.00;99.90;;;;;;4934126;29;20461;-78
2022/09/06 07:46:25;;;;;;;18.20;17.20;;;22.20;99.90;;;;;;4934069;29;20457;-78
2022/09/06 07:48:52;;;;;;;17.53;16.60;;;22.70;99.90;;;;;;4933984;29;20472;-80
2022/09/06 07:51:20;;;;;;;18.27;17.37;;;23.20;99.90;;;;;;4933958;29;20497;-79
2022/09/06 07:53:50;;;;;;;17.23;16.30;;;23.10;99.90;;;;;;4934362;29;20454;-79
2022/09/06 07:56:20;;;;;;;18.03;16.83;;;23.20;99.90;;;;;;4934163;29;20469;-80
2022/09/06 07:58:47;;;;;;;17.30;16.50;;;23.60;99.90;;;;;;4933519;29;20461;-80
2022/09/06 08:01:18;;;;;;;17.83;16.77;;;24.00;99.90;;;;;;4934085;29;20842;-80
2022/09/06 08:03:46;;;;;;;19.20;18.10;;;24.30;99.90;;;;;;4933865;29;20460;-81
2022/09/06 08:06:13;;;;;;;18.17;17.07;;;24.60;99.90;;;;;;4933918;29;20464;-83
2022/09/06 08:08:40;;;;;;;17.37;16.33;;;24.80;99.90;;;;;;4933761;29;20485;-83
2022/09/06 08:11:07;;;;;;;18.20;17.20;;;25.20;99.90;;;;;;4933570;29;20613;-83
2022/09/06 08:13:36;;;;;;;18.53;17.30;;;25.20;99.90;;;;;;4933473;29;20556;-82
2022/09/06 08:16:05;;;;;;;18.07;16.77;;;25.20;99.90;;;;;;4933847;29;20465;-82
2022/09/06 08:18:31;;;;;;;16.77;15.77;;;25.40;99.90;;;;;;4934157;29;20480;-82
2022/09/06 08:21:06;;;;;;;17.83;16.83;;;25.30;99.90;;;;;;4933937;29;20461;-85
2022/09/06 08:23:33;;;;;;;17.50;16.70;;;25.60;99.90;;;;;;4933128;29;20602;-83
2022/09/06 08:26:00;;;;;;;16.80;16.00;;;25.70;99.90;;;;;;4933928;29;20504;-83
2022/09/06 08:28:26;;;;;;;17.93;16.90;;;25.80;99.90;;;;;;4934285;29;20464;-85
2022/09/06 08:30:54;;;;;;;17.60;16.60;;;26.00;99.90;;;;;;4933835;29;20968;-86
2022/09/06 08:33:24;;;;;;;18.00;17.00;;;26.30;99.90;;;;;;4935523;29;20449;-87
2022/09/06 08:35:58;;;;;;;18.47;17.47;;;26.40;99.90;;;;;;4935411;29;20847;-84
2022/09/06 08:38:25;;;;;;;17.10;16.10;;;26.10;99.90;;;;;;4933730;29;20464;-84
2022/09/06 08:40:53;;;;;;;17.20;16.13;;;26.00;99.90;;;;;;4934658;29;20953;-86
2022/09/06 08:43:21;;;;;;;17.07;16.17;;;26.60;99.90;;;;;;4934579;29;20464;-88
2022/09/06 08:45:54;;;;;;;16.93;16.03;;;27.00;99.90;;;;;;4933817;29;20454;-85
2022/09/06 08:48:23;;;;;;;16.70;15.60;;;27.20;99.90;;;;;;4933273;29;20476;-83
2022/09/06 08:51:13;;;;;;;17.63;16.63;;;27.20;99.90;;;;;;4933383;29;20465;-85
2022/09/06 08:53:45;;;;;;;16.63;15.40;;;27.00;99.90;;;;;;4933552;29;20544;-85
2022/09/06 08:56:17;;;;;;;16.93;15.87;;;27.00;99.90;;;;;;4933869;29;20954;-84
2022/09/06 08:59:00;;;;;;;16.17;15.27;;;27.10;99.90;;;;;;4935288;29;20454;-86
2022/09/06 09:01:32;;;;;;;16.30;15.40;;;27.40;99.90;;;;;;4934144;29;20450;-85
2022/09/06 09:04:05;;;;;;;17.77;16.97;;;27.70;99.90;;;;;;4933831;29;20722;-88
2022/09/06 09:06:33;;;;;;;17.63;16.57;;;27.80;99.90;;;;;;4936314;29;20457;-85
2022/09/06 09:09:05;;;;;;;16.43;15.63;;;28.00;99.90;;;;;;4934368;29;20490;-87
2022/09/06 09:11:32;;;;;;;17.23;16.20;;;28.80;98.90;;;;;;4935784;29;21009;-86
2022/09/06 09:14:04;;;;;;;16.47;15.77;;;29.20;97.80;;;;;;4933587;29;20521;-85
2022/09/06 09:16:31;;;;;;;18.27;16.93;;;29.50;96.80;;;;;;4934170;29;20458;-83
2022/09/06 09:19:02;;;;;;;15.67;14.77;;;28.90;97.40;;;;;;4935064;29;20457;-84
2022/09/06 09:21:32;;;;;;;17.40;16.60;;;28.50;98.70;;;;;;4935153;29;20472;-84
2022/09/06 09:24:03;;;;;;;17.40;16.50;;;28.10;98.80;;;;;;4934637;29;20954;-88
2022/09/06 09:26:35;;;;;;;18.40;17.07;;;28.20;98.90;;;;;;4936306;29;20458;-87
2022/09/06 09:29:03;;;;;;;16.43;15.60;;;28.70;97.50;;;;;;4932742;29;20461;-87
2022/09/06 09:31:34;;;;;;;18.10;17.20;;;29.70;96.00;;;;;;4934926;29;20454;-87
2022/09/06 09:34:03;;;;;;;17.63;16.60;;;30.90;93.20;;;;;;4935844;29;20821;-85
2022/09/06 09:36:31;;;;;;;17.37;16.40;;;31.70;92.00;;;;;;4935382;29;20454;-87
2022/09/06 09:38:59;;;;;;;18.17;17.07;;;31.50;90.90;;;;;;4933795;29;20525;-86
2022/09/06 09:41:31;;;;;;;17.00;16.20;;;30.70;92.10;;;;;;4934568;29;20477;-86
2022/09/06 09:44:01;;;;;;;16.97;15.93;;;29.80;93.90;;;;;;4934542;29;20814;-85
2022/09/06 09:46:31;;;;;;;17.07;16.17;;;29.60;95.00;;;;;;4938022;29;20465;-88
2022/09/06 09:49:09;;;;;;;16.37;15.60;;;29.80;94.40;;;;;;4936680;29;20457;-85
2022/09/06 09:51:37;;;;;;;18.47;17.27;;;30.50;92.80;;;;;;4935763;29;20457;-87
2022/09/06 09:54:06;;;;;;;17.30;16.40;;;31.30;91.90;;;;;;4935899;29;20453;-89
2022/09/06 09:56:38;;;;;;;17.60;16.70;;;32.70;89.70;;;;;;4935838;29;20560;-87
2022/09/06 09:59:16;;;;;;;17.83;17.00;;;33.70;83.80;;;;;;4935059;29;20553;-84
2022/09/06 10:01:43;;;;;;;17.60;16.70;;;33.80;82.30;;;;;;4933911;29;20460;-86
2022/09/06 10:04:17;;;;;;;18.47;17.17;;;33.60;81.70;;;;;;4933876;29;20883;-88
2022/09/06 10:06:43;;;;;;;19.20;17.83;;;33.30;81.20;;;;;;4936588;29;20476;-89
2022/09/06 10:09:20;;;;;;;17.90;16.80;;;33.30;80.90;;;;;;4936372;29;20501;-88
2022/09/06 10:11:56;;;;;;;18.57;17.20;;;34.30;78.00;;;;;;4933948;29;20520;-86
2022/09/06 10:14:28;;;;;;;18.63;17.60;;;34.90;76.00;;;;;;4933772;29;20505;-86
2022/09/06 10:16:55;;;;;;;17.53;15.93;;;36.20;73.00;;;;;;4932844;29;20463;-87
2022/09/06 10:19:47;;;;;;;18.50;17.17;;;36.90;69.90;;;;;;4932963;29;20859;-88
2022/09/06 10:22:23;;;;;;;19.90;18.90;;;38.10;65.30;;;;;;4929660;29;20453;-86
2022/09/06 10:25:14;;;;;;;18.90;17.70;;;39.10;59.80;;;;;;4934121;29;20829;-83
2022/09/06 10:27:54;;;;;;;18.50;17.67;;;38.70;58.60;;;;;;4934791;29;20453;-87
2022/09/06 10:30:21;;;;;;;19.97;18.93;;;39.50;56.70;;;;;;4933628;29;20571;-88
2022/09/06 10:32:55;;;;;;;19.40;18.60;;;39.50;56.20;;;;;;4932873;29;21141;-84
2022/09/06 10:35:25;;;;;;;19.43;18.23;;;39.20;56.60;;;;;;4934361;29;20562;-89
2022/09/06 10:38:12;;;;;;;18.73;17.63;;;39.50;55.30;;;;;;4932053;29;20464;-85
2022/09/06 10:40:47;;;;;;;19.90;19.00;;;39.40;55.00;;;;;;4932497;29;20453;-84
2022/09/06 10:43:18;;;;;;;19.67;18.37;;;39.00;55.80;;;;;;4932311;29;20449;-83
2022/09/06 10:45:51;;;;;;;19.17;17.40;;;36.40;59.60;;;;;;4932156;29;20458;-85
2022/09/06 10:48:24;;;;;;;18.80;17.40;;;34.20;66.00;;;;;;4936240;29;21142;-83
2022/09/06 10:50:56;;;;;;;17.97;16.77;;;32.80;71.30;;;;;;4937314;29;20937;-84
2022/09/06 10:53:43;;;;;;;17.63;16.73;;;31.60;76.40;;;;;;4937075;29;20502;-85
2022/09/06 10:56:16;;;;;;;17.13;16.00;;;31.00;80.70;;;;;;4936970;29;20464;-83
2022/09/06 10:58:51;;;;;;;16.60;15.60;;;30.80;81.80;;;;;;4937566;29;20449;-85
2022/09/06 11:01:27;;;;;;;17.23;15.93;;;30.60;84.50;;;;;;4936621;29;20464;-84
2022/09/06 11:03:59;;;;;;;17.20;15.90;;;30.50;85.90;;;;;;4936687;29;20453;-85
2022/09/06 11:06:31;;;;;;;15.93;15.00;;;30.30;87.10;;;;;;4936132;29;20456;-86
2022/09/06 11:09:07;;;;;;;16.70;15.50;;;30.00;88.50;;;;;;4936165;29;20485;-85
2022/09/06 11:11:41;;;;;;;17.37;16.03;;;29.90;89.50;;;;;;4937117;29;20449;-84
2022/09/06 11:14:12;;;;;;;17.00;16.00;;;30.20;89.10;;;;;;4935963;29;21016;-84
2022/09/06 11:16:46;;;;;;;18.00;16.60;;;30.60;87.90;;;;;;4934821;29;20462;-85
2022/09/06 11:19:18;;;;;;;19.00;17.60;;;30.90;87.40;;;;;;4935380;29;20875;-86
2022/09/06 11:22:11;;;;;;;17.43;15.80;;;30.80;87.70;;;;;;4935031;29;20484;-86
2022/09/06 11:24:58;;;;;;;18.17;16.63;;;31.10;87.90;;;;;;4935022;29;20461;-85
2022/09/06 11:27:34;;;;;;;16.73;15.63;;;30.90;88.20;;;;;;4935290;29;20464;-88
2022/09/06 11:30:02;;;;;;;18.27;17.07;;;31.10;87.80;;;;;;4936049;29;20453;-88
2022/09/06 11:32:33;;;;;;;19.37;17.87;;;31.70;86.30;;;;;;4938623;29;20500;-91
2022/09/06 11:35:06;;;;;;;17.73;16.63;;;32.80;83.40;;;;;;4941645;29;20549;-89
2022/09/06 11:37:38;;;;;;;17.77;16.70;;;33.80;77.60;;;;;;4942452;29;21213;-88
2022/09/06 11:40:15;;;;;;;17.13;16.23;;;33.90;78.20;;;;;;4937910;29;20646;-86
2022/09/06 11:43:15;;;;;;;18.17;16.80;;;34.70;74.40;;;;;;4936311;29;20464;-87
2022/09/06 11:45:46;;;;;;;18.00;16.70;;;35.00;73.40;;;;;;4937972;29;20821;-87
2022/09/06 11:48:48;;;;;;;18.37;17.37;;;35.50;72.50;;;;;;4940252;29;20819;-88
2022/09/06 11:51:32;;;;;;;17.77;16.60;;;35.80;69.70;;;;;;4936997;29;20472;-89
2022/09/06 11:54:20;;;;;;;19.57;18.13;;;36.00;69.50;;;;;;4935588;29;20485;-89
2022/09/06 11:56:54;;;;;;;18.03;17.00;;;36.60;67.90;;;;;;4935211;29;20457;-87
2022/09/06 11:59:34;;;;;;;17.47;16.67;;;36.60;66.40;;;;;;4936125;29;20465;-90
2022/09/06 12:02:03;;;;;;;18.37;17.30;;;37.50;64.30;;;;;;4937984;29;20876;-89
2022/09/06 12:05:08;;;;;;;17.97;16.97;;;38.10;60.60;;;;;;4936284;29;20453;-87
2022/09/06 12:07:36;;;;;;;18.37;17.47;;;38.20;60.30;;;;;;4935718;29;20791;-89
2022/09/06 12:10:45;;;;;;;19.53;18.07;;;38.20;60.50;;;;;;4934236;29;20695;-89
2022/09/06 12:13:33;;;;;;;18.03;17.00;;;37.70;60.80;;;;;;4929770;29;20499;-88
2022/09/06 12:16:00;;;;;;;17.63;16.73;;;36.70;61.60;;;;;;4936607;29;20894;-88
2022/09/06 12:18:55;;;;;;;17.57;16.53;;;35.80;64.30;;;;;;4935895;29;20468;-90
2022/09/06 12:21:44;;;;;;;18.90;17.70;;;34.50;67.10;;;;;;4937611;29;20492;-89
2022/09/06 12:24:45;;;;;;;17.40;16.40;;;34.10;69.20;;;;;;4941946;29;20457;-90
2022/09/06 12:27:17;;;;;;;19.10;17.40;;;34.40;68.40;;;;;;4938818;29;20457;-89
2022/09/06 12:29:53;;;;;;;17.40;15.97;;;34.00;69.50;;;;;;4945620;29;20465;-89
2022/09/06 12:32:23;;;;;;;17.23;15.80;;;33.40;71.10;;;;;;4946232;29;20493;-87
2022/09/06 12:34:52;;;;;;;17.27;16.17;;;33.80;70.80;;;;;;4945499;29;20462;-87
2022/09/06 12:37:32;;;;;;;17.33;16.23;;;33.80;69.50;;;;;;4936821;29;20452;-90
2022/09/06 12:40:00;;;;;;;17.03;15.87;;;33.50;71.10;;;;;;4937180;29;20473;-86
2022/09/06 12:42:30;;;;;;;16.90;16.03;;;33.80;70.30;;;;;;4938453;29;20469;-90
2022/09/06 12:44:57;;;;;;;15.30;14.60;;;35.30;66.90;;;;;;4937012;29;20846;-88
2022/09/06 12:47:28;;;;;;;14.53;13.80;;;35.10;65.70;;;;;;4935077;29;20473;-87
2022/09/06 12:50:16;;;;;;;17.00;16.00;;;33.70;69.30;;;;;;4934666;29;20830;-89
2022/09/06 12:52:49;;;;;;;17.43;16.03;;;32.10;74.90;;;;;;4935489;29;20489;-88
2022/09/06 12:55:22;;;;;;;16.97;15.87;;;31.60;80.40;;;;;;4934873;29;20458;-88
2022/09/06 12:57:53;;;;;;;16.97;15.90;;;31.80;78.60;;;;;;4933341;29;20461;-88
2022/09/06 13:00:22;;;;;;;17.37;16.37;;;31.20;81.20;;;;;;4935356;29;20473;-88
2022/09/06 13:03:04;;;;;;;25.17;23.80;;;30.20;89.60;;;;;;4934533;29;20849;-82
2022/09/06 13:05:31;;;;;;;25.23;23.77;;;29.20;97.90;;;;;;4925033;29;20492;-84
2022/09/06 13:08:02;;;;;;;19.60;18.60;;;28.40;99.90;;;;;;4924173;29;20854;-85
2022/09/06 13:10:29;;;;;;;17.80;16.07;;;27.70;99.90;;;;;;4930296;29;20497;-86
2022/09/06 13:12:58;;;;;;;15.50;14.70;;;27.20;99.90;;;;;;4923116;29;20482;-89
2022/09/06 13:15:29;;;;;;;15.93;15.03;;;27.20;99.90;;;;;;4929759;29;20461;-88
2022/09/06 13:18:20;;;;;;;15.93;15.07;;;27.30;99.90;;;;;;4924519;29;20447;-86